Orlando, FL (32801)

10:41 PM EDT on August 27, 2016 (GMT -0400)
WFTV, Channel 9 | | Change Station

Elev 92 ft 28.54 °N, 81.37 °W | Updated 5 seconds ago

Clear
Clear
82.9 °F
Feels Like 97 °F
N
0.4
Wind Variable Wind from NNE
Gusts 2.5 mph

Today
High -- | Low -- °F
--% Chance of Precip.
Yesterday
High -- | Low -- °F
Precip. -- in
Pressure 29.99 in
Visibility 10.0 miles
Clouds Clear
Heat Index 97 °F
Dew Point 82 °F
Humidity 96%
Rainfall 0.04 in
Snow Depth Not available.
7:01 AM 7:51 PM
Waning Crescent, 19% visible
METAR KORL 280153Z 06004KT 10SM CLR 27/25 A2998 RMK AO2 SLP154 T02670250
Pressure 29.99 in
Visibility 10.0 miles
Clouds Clear
Heat Index 97 °F
Dew Point 82 °F
Humidity 96%
Rainfall 0.04 in
Snow Depth Not available.
7:01 AM 7:51 PM
Waning Crescent, 19% visible
METAR KORL 280153Z 06004KT 10SM CLR 27/25 A2998 RMK AO2 SLP154 T02670250

10-Day Weather Forecast

Almanac

Astronomy

Aug. 27, 2016 Rise Set
Actual Time
Civil Twilight
Nautical Twilight
Astronomical Twilight
Moon
Length of Visible Light
Length of Day
Tomorrow will be .
, % of the Moon is Illuminated

Today's Extremes

State Highs State Lows

Community

WunderPhotos

Upload Photos

1,935,505 photos uploaded!

WunderBlog® & News

Nearby

Air Quality

  Air Quality AQ Index Pollutant
Not available.

Snow Depth

Station Depth Elevation

Earthquake Activity

City Distance Mag. Time & Date
Minimum magnitude displayed is 2.5.

Coastal Water Temperatures

Place Temperature

Stations

Nearby Weather Stations

Station Location Temp. Windchill Dew Point Humidity Wind Precip. Elev Updated Type
                   

Watches & Warnings

There are currently no watches in effect.